Time;durP1;ratioP1;P1;durP2;ratioP2;P2;SDS_P1;SDS_P2;PMS_P1;PMS_P2;Temp;Humidity;BMP_temperature;BMP_pressure;BME280_temperature;BME280_humidity;BME280_pressure;Samples;Min_cycle;Max_cycle;Signal;HPM_P1;HPM_P2
2023/10/03 00:02:03;;;;;;;;;;;;;;;;;;5073171;28;20325;-74
2023/10/03 00:04:29;;;;;;;;;;;;;;;;;;5071196;28;19916;-76
2023/10/03 00:06:55;;;;;;;;;;;;;;;;;;5073032;28;20292;-76
2023/10/03 00:09:21;;;;;;;;;;;;;;;;;;5071398;28;19912;-75
2023/10/03 00:11:46;;;;;;;;;;;;;;;;;;5071957;28;19931;-75
2023/10/03 00:14:12;;;;;;;;;;;;;;;;;;5072079;28;19909;-75
2023/10/03 00:16:39;;;;;;;;;;;;;;;;;;5072875;28;19920;-75
2023/10/03 00:19:05;;;;;;;;;;;;;;;;;;5072867;28;20005;-75
2023/10/03 00:21:31;;;;;;;;;;;;;;;;;;5072817;28;20399;-75
2023/10/03 00:23:57;;;;;;;;;;;;;;;;;;5071840;28;19996;-75
2023/10/03 00:26:23;;;;;;;;;;;;;;;;;;5072112;28;20237;-74
2023/10/03 00:28:51;;;;;;;;;;;;;;;;;;5072424;28;20371;-75
2023/10/03 00:31:17;;;;;;;;;;;;;;;;;;5071131;28;20348;-75
2023/10/03 00:33:43;;;;;;;;;;;;;;;;;;5071729;28;19955;-75
2023/10/03 00:36:12;;;;;;;;;;;;;;;;;;5072493;28;19912;-75
2023/10/03 00:38:38;;;;;;;;;;;;;;;;;;5072103;28;19951;-75
2023/10/03 00:41:05;;;;;;;;;;;;;;;;;;5072463;28;19909;-75
2023/10/03 00:43:31;;;;;;;;;;;;;;;;;;5070300;28;20014;-74
2023/10/03 00:45:57;;;;;;;;;;;;;;;;;;5072370;28;20061;-73
2023/10/03 00:48:23;;;;;;;;;;;;;;;;;;5072474;28;20348;-74
2023/10/03 00:50:49;;;;;;;;;;;;;;;;;;5072660;28;19960;-74
2023/10/03 00:53:15;;;;;;;;;;;;;;;;;;5071911;28;19919;-74
2023/10/03 00:55:43;;;;;;;;;;;;;;;;;;5070195;28;19924;-75
2023/10/03 01:00:38;;;;;;;;;;;;;;;;;;5072112;28;19914;-75
2023/10/03 01:03:05;;;;;;;;;;;;;;;;;;5071874;28;19931;-74
2023/10/03 01:05:31;;;;;;;;;;;;;;;;;;5071274;28;19912;-75
2023/10/03 01:07:57;;;;;;;;;;;;;;;;;;5070545;28;19935;-74
2023/10/03 01:10:24;;;;;;;;;;;;;;;;;;5070602;28;19954;-73
2023/10/03 01:12:50;;;;;;;;;;;;;;;;;;5070486;28;20375;-73
2023/10/03 01:15:16;;;;;;;;;;;;;;;;;;5070937;28;20389;-74
2023/10/03 01:17:44;;;;;;;;;;;;;;;;;;5080095;28;19991;-75
2023/10/03 01:20:55;;;;;;;;;;;;;;;;;;5087183;28;19909;-75
2023/10/03 01:23:01;;;;;;;;;;;;;;;;;;5071150;28;19913;-74
2023/10/03 01:25:27;;;;;;;;;;;;;;;;;;5086484;28;19909;-74
2023/10/03 01:27:53;;;;;;;;;;;;;;;;;;5071643;28;20376;-74
2023/10/03 01:30:19;;;;;;;;;;;;;;;;;;5087066;28;19916;-74
2023/10/03 01:32:45;;;;;;;;;;;;;;;;;;5071503;28;19930;-74
2023/10/03 01:35:11;;;;;;;;;;;;;;;;;;5071136;28;20268;-74
2023/10/03 01:37:38;;;;;;;;;;;;;;;;;;5071347;28;19912;-74
2023/10/03 01:40:08;;;;;;;;;;;;;;;;;;5086454;28;19908;-74
2023/10/03 01:42:34;;;;;;;;;;;;;;;;;;5071695;28;19909;-75
2023/10/03 01:45:00;;;;;;;;;;;;;;;;;;5070725;28;19917;-74
2023/10/03 01:47:26;;;;;;;;;;;;;;;;;;5071315;28;19912;-74
2023/10/03 01:49:54;;;;;;;;;;;;;;;;;;5087035;28;19922;-74
2023/10/03 01:52:20;;;;;;;;;;;;;;;;;;5071381;28;19909;-74
2023/10/03 01:54:46;;;;;;;;;;;;;;;;;;5086291;28;19909;-74
2023/10/03 01:57:12;;;;;;;;;;;;;;;;;;5071344;28;19952;-74
2023/10/03 01:59:38;;;;;;;;;;;;;;;;;;5102482;28;19912;-76
2023/10/03 02:02:05;;;;;;;;;;;;;;;;;;5069987;28;19913;-74
2023/10/03 02:04:32;;;;;;;;;;;;;;;;;;5070569;28;19915;-74
2023/10/03 02:06:58;;;;;;;;;;;;;;;;;;5071260;28;20287;-74
2023/10/03 02:09:24;;;;;;;;;;;;;;;;;;5071157;28;19909;-74
2023/10/03 02:11:51;;;;;;;;;;;;;;;;;;5069919;28;19908;-74
2023/10/03 02:14:18;;;;;;;;;;;;;;;;;;5069194;28;20042;-75
2023/10/03 02:16:46;;;;;;;;;;;;;;;;;;5071080;28;19913;-74
2023/10/03 02:19:12;;;;;;;;;;;;;;;;;;5071245;28;19909;-74
2023/10/03 02:21:41;;;;;;;;;;;;;;;;;;5071050;28;19930;-74
2023/10/03 02:24:07;;;;;;;;;;;;;;;;;;5070649;28;19985;-74
2023/10/03 02:26:33;;;;;;;;;;;;;;;;;;5071072;28;20340;-74
2023/10/03 02:29:00;;;;;;;;;;;;;;;;;;5070841;28;19962;-75
2023/10/03 02:31:26;;;;;;;;;;;;;;;;;;5069663;28;20344;-76
2023/10/03 02:33:53;;;;;;;;;;;;;;;;;;5070522;28;19908;-75
2023/10/03 02:36:19;;;;;;;;;;;;;;;;;;5070807;28;19913;-75
2023/10/03 02:38:45;;;;;;;;;;;;;;;;;;5070899;28;19909;-75
2023/10/03 02:41:12;;;;;;;;;;;;;;;;;;5070972;28;19913;-74
2023/10/03 02:43:38;;;;;;;;;;;;;;;;;;5070074;28;20398;-74
2023/10/03 02:46:06;;;;;;;;;;;;;;;;;;5069587;28;19908;-72
2023/10/03 02:48:33;;;;;;;;;;;;;;;;;;5070621;28;19908;-71
2023/10/03 02:51:01;;;;;;;;;;;;;;;;;;5073413;28;20006;-71
2023/10/03 02:53:27;;;;;;;;;;;;;;;;;;5073806;28;20395;-72
2023/10/03 02:55:54;;;;;;;;;;;;;;;;;;5074200;28;19966;-72
2023/10/03 02:58:20;;;;;;;;;;;;;;;;;;5074305;28;19908;-72
2023/10/03 03:00:46;;;;;;;;;;;;;;;;;;5074189;28;20034;-72
2023/10/03 03:03:12;;;;;;;;;;;;;;;;;;5074188;28;19954;-72
2023/10/03 03:05:38;;;;;;;;;;;;;;;;;;5073562;28;19909;-73
2023/10/03 03:10:45;;;;;;;;;;;;;;;;;;5074088;28;20460;-73
2023/10/03 03:13:15;;;;;;;;;;;;;;;;;;5074035;28;19913;-72
2023/10/03 03:15:51;;;;;;;;;;;;;;;;;;5073466;28;19920;-72
2023/10/03 03:18:19;;;;;;;;;;;;;;;;;;5073990;28;19955;-73
2023/10/03 03:20:49;;;;;;;;;;;;;;;;;;5073886;28;19908;-73
2023/10/03 03:23:16;;;;;;;;;;;;;;;;;;5073585;28;19912;-73
2023/10/03 03:25:42;;;;;;;;;;;;;;;;;;5073500;28;19908;-73
2023/10/03 03:28:15;;;;;;;;;;;;;;;;;;5073961;28;19934;-73
2023/10/03 03:30:45;;;;;;;;;;;;;;;;;;5073771;28;19962;-73
2023/10/03 03:33:11;;;;;;;;;;;;;;;;;;5073643;28;19919;-73
2023/10/03 03:35:41;;;;;;;;;;;;;;;;;;5073007;28;19908;-74
2023/10/03 03:38:11;;;;;;;;;;;;;;;;;;5073707;28;19961;-74
2023/10/03 03:40:37;;;;;;;;;;;;;;;;;;5073589;28;19909;-73
2023/10/03 03:43:03;;;;;;;;;;;;;;;;;;5073564;28;20053;-73
2023/10/03 03:45:30;;;;;;;;;;;;;;;;;;5073050;28;19915;-72
2023/10/03 03:47:56;;;;;;;;;;;;;;;;;;5073347;28;19991;-74
2023/10/03 03:50:22;;;;;;;;;;;;;;;;;;5073721;28;20005;-73
2023/10/03 03:52:49;;;;;;;;;;;;;;;;;;5073538;28;19908;-74
2023/10/03 03:55:16;;;;;;;;;;;;;;;;;;5072609;28;19915;-73
2023/10/03 03:57:42;;;;;;;;;;;;;;;;;;5073320;28;20055;-74
2023/10/03 04:00:18;;;;;;;;;;;;;;;;;;5073212;28;19952;-73
2023/10/03 04:02:44;;;;;;;;;;;;;;;;;;5072345;28;19916;-72
2023/10/03 04:05:12;;;;;;;;;;;;;;;;;;5071083;28;19908;-73
2023/10/03 04:07:38;;;;;;;;;;;;;;;;;;5073129;28;20008;-73
2023/10/03 04:10:05;;;;;;;;;;;;;;;;;;5073097;28;19951;-74
2023/10/03 04:12:31;;;;;;;;;;;;;;;;;;5071724;28;19920;-73
2023/10/03 04:14:57;;;;;;;;;;;;;;;;;;5070916;28;20442;-74
2023/10/03 04:17:23;;;;;;;;;;;;;;;;;;5071596;28;20307;-74
2023/10/03 04:19:49;;;;;;;;;;;;;;;;;;5071434;28;20041;-73
2023/10/03 04:22:16;;;;;;;;;;;;;;;;;;5072726;28;20352;-72
2023/10/03 04:24:41;;;;;;;;;;;;;;;;;;5072188;28;19909;-72
2023/10/03 04:27:08;;;;;;;;;;;;;;;;;;5072823;28;19905;-74
2023/10/03 04:29:33;;;;;;;;;;;;;;;;;;5072660;28;19908;-72
2023/10/03 04:31:59;;;;;;;;;;;;;;;;;;5072336;28;20261;-72
2023/10/03 04:34:27;;;;;;;;;;;;;;;;;;5072001;28;19940;-73
2023/10/03 04:36:54;;;;;;;;;;;;;;;;;;5072254;28;19918;-73
2023/10/03 04:39:20;;;;;;;;;;;;;;;;;;5072545;28;19908;-73
2023/10/03 04:41:46;;;;;;;;;;;;;;;;;;5072551;28;19913;-72
2023/10/03 04:44:16;;;;;;;;;;;;;;;;;;5070419;28;19948;-74
2023/10/03 04:46:44;;;;;;;;;;;;;;;;;;5072261;28;19955;-71
2023/10/03 04:49:10;;;;;;;;;;;;;;;;;;5072090;28;19913;-73
2023/10/03 04:51:37;;;;;;;;;;;;;;;;;;5072649;28;19959;-74
2023/10/03 04:54:03;;;;;;;;;;;;;;;;;;5070142;28;19913;-73
2023/10/03 04:56:29;;;;;;;;;;;;;;;;;;5072069;28;20407;-72
2023/10/03 04:58:55;;;;;;;;;;;;;;;;;;5071808;28;19909;-73
2023/10/03 05:01:21;;;;;;;;;;;;;;;;;;5072146;28;19963;-73
2023/10/03 05:03:47;;;;;;;;;;;;;;;;;;5071595;28;19909;-74
2023/10/03 05:06:13;;;;;;;;;;;;;;;;;;5070613;28;19920;-74
2023/10/03 05:08:38;;;;;;;;;;;;;;;;;;5072158;28;19916;-74
2023/10/03 05:11:06;;;;;;;;;;;;;;;;;;5071884;28;19909;-73
2023/10/03 05:13:32;;;;;;;;;;;;;;;;;;5070922;28;19917;-71
2023/10/03 05:15:58;;;;;;;;;;;;;;;;;;5071628;28;19917;-72
2023/10/03 05:18:24;;;;;;;;;;;;;;;;;;5071780;28;20405;-72
2023/10/03 05:20:51;;;;;;;;;;;;;;;;;;5071745;28;19982;-71
2023/10/03 05:23:17;;;;;;;;;;;;;;;;;;5071571;28;19909;-72
2023/10/03 05:25:43;;;;;;;;;;;;;;;;;;5071256;28;20216;-72
2023/10/03 05:28:12;;;;;;;;;;;;;;;;;;5071604;28;20303;-72
2023/10/03 05:30:38;;;;;;;;;;;;;;;;;;5070283;28;19915;-73
2023/10/03 05:33:06;;;;;;;;;;;;;;;;;;5071512;28;20029;-73
2023/10/03 05:35:31;;;;;;;;;;;;;;;;;;5071037;28;20444;-74
2023/10/03 05:37:57;;;;;;;;;;;;;;;;;;5070303;28;19908;-73
2023/10/03 05:40:23;;;;;;;;;;;;;;;;;;5070300;28;19908;-74
2023/10/03 05:42:49;;;;;;;;;;;;;;;;;;5071464;28;19909;-73
2023/10/03 05:45:15;;;;;;;;;;;;;;;;;;5069420;28;19908;-73
2023/10/03 05:47:44;;;;;;;;;;;;;;;;;;5071456;28;19934;-71
2023/10/03 05:50:21;;;;;;;;;;;;;;;;;;5071466;28;19943;-72
2023/10/03 05:52:47;;;;;;;;;;;;;;;;;;5071547;28;19916;-72
2023/10/03 05:55:13;;;;;;;;;;;;;;;;;;5070932;28;19908;-75
2023/10/03 05:57:41;;;;;;;;;;;;;;;;;;5071493;28;19927;-72
2023/10/03 06:00:10;;;;;;;;;;;;;;;;;;5069935;28;19916;-71
2023/10/03 06:02:38;;;;;;;;;;;;;;;;;;5071383;28;19915;-71
2023/10/03 06:05:04;;;;;;;;;;;;;;;;;;5070599;28;19995;-72
2023/10/03 06:07:30;;;;;;;;;;;;;;;;;;5070692;28;20017;-72
2023/10/03 06:09:56;;;;;;;;;;;;;;;;;;5082013;28;19912;-72
2023/10/03 06:12:23;;;;;;;;;;;;;;;;;;5095957;28;19908;-74
2023/10/03 06:14:49;;;;;;;;;;;;;;;;;;5107041;28;20408;-74
2023/10/03 06:17:18;;;;;;;;;;;;;;;;;;5111389;28;19912;-74
2023/10/03 06:19:44;;;;;;;;;;;;;;;;;;5110314;28;20263;-75
2023/10/03 06:22:12;;;;;;;;;;;;;;;;;;5110160;28;19911;-74
2023/10/03 06:24:38;;;;;;;;;;;;;;;;;;5111528;28;19962;-73
2023/10/03 06:27:08;;;;;;;;;;;;;;;;;;5115727;28;19908;-73
2023/10/03 06:29:34;;;;;;;;;;;;;;;;;;5112742;27;19908;-74
2023/10/03 06:32:00;;;;;;;;;;;;;;;;;;5094967;28;19930;-74
2023/10/03 06:34:26;;;;;;;;;;;;;;;;;;5094331;28;19908;-74
2023/10/03 06:36:52;;;;;;;;;;;;;;;;;;5093709;28;19919;-73
2023/10/03 06:39:18;;;;;;;;;;;;;;;;;;5094920;28;20006;-73
2023/10/03 06:41:44;;;;;;;;;;;;;;;;;;5090805;28;20287;-73
2023/10/03 06:44:10;;;;;;;;;;;;;;;;;;5077402;28;19913;-73
2023/10/03 06:46:37;;;;;;;;;;;;;;;;;;5074582;28;19908;-73
2023/10/03 06:49:03;;;;;;;;;;;;;;;;;;5073590;28;19913;-73
2023/10/03 06:51:29;;;;;;;;;;;;;;;;;;5074488;28;19908;-75
2023/10/03 06:53:55;;;;;;;;;;;;;;;;;;5074118;28;19913;-74
2023/10/03 06:56:22;;;;;;;;;;;;;;;;;;5072939;28;19954;-75
2023/10/03 06:58:48;;;;;;;;;;;;;;;;;;5074412;28;20051;-73
2023/10/03 07:01:14;;;;;;;;;;;;;;;;;;5074117;28;19909;-74
2023/10/03 07:03:40;;;;;;;;;;;;;;;;;;5073600;28;20334;-75
2023/10/03 07:06:06;;;;;;;;;;;;;;;;;;5074029;28;19909;-73
2023/10/03 07:08:32;;;;;;;;;;;;;;;;;;5073905;28;20021;-74
2023/10/03 07:10:58;;;;;;;;;;;;;;;;;;5072859;28;19908;-75
2023/10/03 07:13:26;;;;;;;;;;;;;;;;;;5073793;28;19912;-71
2023/10/03 07:15:52;;;;;;;;;;;;;;;;;;5074008;28;19908;-72
2023/10/03 07:18:18;;;;;;;;;;;;;;;;;;5074094;28;19909;-70
2023/10/03 07:20:44;;;;;;;;;;;;;;;;;;5073802;28;20371;-69
2023/10/03 07:23:10;;;;;;;;;;;;;;;;;;5073746;28;19909;-73
2023/10/03 07:25:36;;;;;;;;;;;;;;;;;;5073829;28;19909;-73
2023/10/03 07:28:02;;;;;;;;;;;;;;;;;;5072856;28;19908;-75
2023/10/03 07:30:28;;;;;;;;;;;;;;;;;;5074096;28;19908;-73
2023/10/03 07:32:54;;;;;;;;;;;;;;;;;;5072517;28;20264;-73
2023/10/03 07:35:21;;;;;;;;;;;;;;;;;;5072234;28;19912;-74
2023/10/03 07:37:47;;;;;;;;;;;;;;;;;;5072856;28;19966;-73
2023/10/03 07:40:13;;;;;;;;;;;;;;;;;;5073786;28;20750;-72
2023/10/03 07:42:40;;;;;;;;;;;;;;;;;;5074728;28;19909;-74
2023/10/03 07:45:06;;;;;;;;;;;;;;;;;;5093217;28;19970;-74
2023/10/03 07:47:32;;;;;;;;;;;;;;;;;;5094344;28;20294;-73
2023/10/03 07:49:59;;;;;;;;;;;;;;;;;;5093356;28;19927;-73
2023/10/03 07:52:27;;;;;;;;;;;;;;;;;;5092660;28;20298;-75
2023/10/03 07:54:56;;;;;;;;;;;;;;;;;;5092228;28;19972;-73
2023/10/03 07:57:23;;;;;;;;;;;;;;;;;;5093778;28;19994;-74
2023/10/03 07:59:50;;;;;;;;;;;;;;;;;;5093592;28;20356;-74
2023/10/03 08:02:16;;;;;;;;;;;;;;;;;;5093634;28;19927;-74
2023/10/03 08:04:43;;;;;;;;;;;;;;;;;;5093411;28;19946;-73
2023/10/03 08:07:19;;;;;;;;;;;;;;;;;;5093911;28;20045;-75
2023/10/03 08:09:50;;;;;;;;;;;;;;;;;;5093439;28;19917;-74
2023/10/03 08:12:23;;;;;;;;;;;;;;;;;;5093693;28;19923;-73
2023/10/03 08:14:52;;;;;;;;;;;;;;;;;;5092287;28;19908;-66
2023/10/03 08:17:18;;;;;;;;;;;;;;;;;;5093279;28;19912;-67
2023/10/03 08:19:45;;;;;;;;;;;;;;;;;;5091810;28;19908;-67
2023/10/03 08:22:14;;;;;;;;;;;;;;;;;;5091571;28;19912;-66
2023/10/03 08:24:43;;;;;;;;;;;;;;;;;;5092254;28;19908;-66
2023/10/03 08:27:17;;;;;;;;;;;;;;;;;;5092985;28;19908;-66
2023/10/03 08:29:43;;;;;;;;;;;;;;;;;;5093119;28;19912;-66
2023/10/03 08:32:09;;;;;;;;;;;;;;;;;;5093246;28;19961;-66
2023/10/03 08:34:43;;;;;;;;;;;;;;;;;;5092130;28;20363;-67
2023/10/03 08:37:09;;;;;;;;;;;;;;;;;;5092696;28;19948;-66
2023/10/03 08:39:35;;;;;;;;;;;;;;;;;;5092996;28;19947;-67
2023/10/03 08:42:09;;;;;;;;;;;;;;;;;;5092516;28;19946;-66
2023/10/03 08:44:36;;;;;;;;;;;;;;;;;;5091713;28;19908;-66
2023/10/03 08:47:09;;;;;;;;;;;;;;;;;;5092439;28;19908;-66
2023/10/03 08:49:38;;;;;;;;;;;;;;;;;;5092111;28;19916;-67
2023/10/03 08:52:04;;;;;;;;;;;;;;;;;;5092320;28;19915;-66
2023/10/03 08:54:36;;;;;;;;;;;;;;;;;;5091398;28;19908;-66
2023/10/03 08:57:02;;;;;;;;;;;;;;;;;;5092274;28;19919;-67
2023/10/03 08:59:30;;;;;;;;;;;;;;;;;;5092401;28;19908;-66
2023/10/03 09:01:58;;;;;;;;;;;;;;;;;;5092602;28;19911;-66
2023/10/03 09:04:25;;;;;;;;;;;;;;;;;;5091542;28;20003;-66
2023/10/03 09:06:52;;;;;;;;;;;;;;;;;;5091921;28;19973;-66
2023/10/03 09:09:19;;;;;;;;;;;;;;;;;;5092043;28;19930;-66
2023/10/03 09:11:51;;;;;;;;;;;;;;;;;;5091884;28;20448;-66
2023/10/03 09:14:20;;;;;;;;;;;;;;;;;;5091386;28;20002;-67
2023/10/03 09:16:59;;;;;;;;;;;;;;;;;;5092052;28;19918;-66
2023/10/03 09:19:25;;;;;;;;;;;;;;;;;;5091873;28;19908;-66
2023/10/03 09:21:51;;;;;;;;;;;;;;;;;;5091937;28;19912;-67
2023/10/03 09:24:17;;;;;;;;;;;;;;;;;;5091194;28;20002;-66
2023/10/03 09:26:45;;;;;;;;;;;;;;;;;;5092273;28;19912;-65
2023/10/03 09:29:11;;;;;;;;;;;;;;;;;;5091985;28;20375;-66
2023/10/03 09:31:37;;;;;;;;;;;;;;;;;;5092056;28;19908;-67
2023/10/03 09:34:03;;;;;;;;;;;;;;;;;;5090926;28;19919;-66
2023/10/03 09:36:29;;;;;;;;;;;;;;;;;;5090462;28;19912;-67
2023/10/03 09:38:55;;;;;;;;;;;;;;;;;;5091554;28;19908;-67
2023/10/03 09:41:21;;;;;;;;;;;;;;;;;;5091665;28;20275;-67
2023/10/03 09:43:49;;;;;;;;;;;;;;;;;;5090968;28;19998;-68
2023/10/03 09:46:15;;;;;;;;;;;;;;;;;;5090090;28;19915;-67
2023/10/03 09:48:41;;;;;;;;;;;;;;;;;;5090259;28;19912;-68
2023/10/03 09:51:07;;;;;;;;;;;;;;;;;;5090147;28;20475;-67
2023/10/03 09:53:32;;;;;;;;;;;;;;;;;;5090240;28;19929;-67
2023/10/03 09:55:58;;;;;;;;;;;;;;;;;;5091532;28;20378;-67
2023/10/03 09:58:24;;;;;;;;;;;;;;;;;;5090289;28;19909;-68
2023/10/03 10:00:53;;;;;;;;;;;;;;;;;;5094164;28;19915;-68
2023/10/03 10:03:28;;;;;;;;;;;;;;;;;;5095584;28;20626;-68
2023/10/03 10:05:59;;;;;;;;;;;;;;;;;;5095991;28;19914;-67
2023/10/03 10:08:27;;;;;;;;;;;;;;;;;;5095534;28;19909;-67
2023/10/03 10:10:53;;;;;;;;;;;;;;;;;;5095402;28;20264;-68
2023/10/03 10:13:23;;;;;;;;;;;;;;;;;;5099877;28;19912;-68
2023/10/03 10:15:49;;;;;;;;;;;;;;;;;;5107441;28;19914;-68
2023/10/03 10:18:15;;;;;;;;;;;;;;;;;;5115465;28;19907;-69
2023/10/03 10:20:43;;;;;;;;;;;;;;;;;;5086082;27;19952;-67
2023/10/03 10:25:41;;;;;;;;;;;;;;;;;;5106948;28;19950;-67
2023/10/03 10:28:07;;;;;;;;;;;;;;;;;;5115526;28;19908;-66
2023/10/03 10:30:33;;;;;;;;;;;;;;;;;;5115690;28;19908;-67
2023/10/03 10:32:59;;;;;;;;;;;;;;;;;;5115551;28;19908;-67
2023/10/03 10:35:25;;;;;;;;;;;;;;;;;;5114907;28;19915;-68
2023/10/03 10:37:52;;;;;;;;;;;;;;;;;;5115374;28;19953;-67
2023/10/03 10:40:21;;;;;;;;;;;;;;;;;;5115254;28;19907;-67
2023/10/03 10:42:47;;;;;;;;;;;;;;;;;;5115211;28;19908;-67
2023/10/03 10:45:16;;;;;;;;;;;;;;;;;;5114540;28;19908;-65
2023/10/03 10:47:42;;;;;;;;;;;;;;;;;;5115398;27;20302;-68
2023/10/03 10:50:11;;;;;;;;;;;;;;;;;;5114332;28;21350;-67
2023/10/03 10:52:37;;;;;;;;;;;;;;;;;;5115400;28;19955;-68
2023/10/03 10:55:07;;;;;;;;;;;;;;;;;;5113152;28;19964;-67
2023/10/03 10:57:33;;;;;;;;;;;;;;;;;;5113509;28;20291;-67
2023/10/03 10:59:59;;;;;;;;;;;;;;;;;;5115277;28;19907;-66
2023/10/03 11:02:26;;;;;;;;;;;;;;;;;;5115831;28;19951;-67
2023/10/03 11:04:52;;;;;;;;;;;;;;;;;;5114449;28;19991;-73
2023/10/03 11:07:18;;;;;;;;;;;;;;;;;;5114426;28;19950;-73
2023/10/03 11:09:44;;;;;;;;;;;;;;;;;;5112919;28;20408;-73
2023/10/03 11:12:10;;;;;;;;;;;;;;;;;;5113109;28;19916;-74
2023/10/03 11:14:36;;;;;;;;;;;;;;;;;;5114138;28;20291;-74
2023/10/03 11:17:02;;;;;;;;;;;;;;;;;;5114685;28;19923;-74
2023/10/03 11:19:29;;;;;;;;;;;;;;;;;;5114438;28;19908;-74
2023/10/03 11:21:55;;;;;;;;;;;;;;;;;;5113330;28;19930;-74
2023/10/03 11:24:21;;;;;;;;;;;;;;;;;;5113870;28;20367;-74
2023/10/03 11:26:47;;;;;;;;;;;;;;;;;;5114998;28;19908;-73
2023/10/03 11:29:15;;;;;;;;;;;;;;;;;;5079756;28;20417;-74
2023/10/03 11:31:40;;;;;;;;;;;;;;;;;;5074164;28;19909;-74
2023/10/03 11:34:06;;;;;;;;;;;;;;;;;;5073379;28;19915;-74
2023/10/03 11:36:32;;;;;;;;;;;;;;;;;;5073910;28;19966;-74
2023/10/03 11:38:58;;;;;;;;;;;;;;;;;;5073355;28;19908;-75
2023/10/03 11:41:24;;;;;;;;;;;;;;;;;;5072431;28;19909;-73
2023/10/03 11:43:53;;;;;;;;;;;;;;;;;;5071969;28;20317;-72
2023/10/03 11:46:19;;;;;;;;;;;;;;;;;;5073870;28;19908;-74
2023/10/03 11:48:45;;;;;;;;;;;;;;;;;;5072157;28;20270;-73
2023/10/03 11:51:13;;;;;;;;;;;;;;;;;;5073612;28;20455;-73
2023/10/03 11:53:39;;;;;;;;;;;;;;;;;;5071602;28;19912;-73
2023/10/03 11:56:04;;;;;;;;;;;;;;;;;;5073695;28;20551;-74
2023/10/03 11:58:32;;;;;;;;;;;;;;;;;;5073327;28;20394;-72
2023/10/03 12:00:57;;;;;;;;;;;;;;;;;;5073510;28;19908;-72
2023/10/03 12:03:23;;;;;;;;;;;;;;;;;;5073100;28;19908;-73
2023/10/03 12:05:54;;;;;;;;;;;;;;;;;;5072775;28;20295;-72
2023/10/03 12:08:20;;;;;;;;;;;;;;;;;;5073003;28;20057;-72
2023/10/03 12:10:46;;;;;;;;;;;;;;;;;;5073357;28;19908;-73
2023/10/03 12:13:14;;;;;;;;;;;;;;;;;;5072902;28;19912;-71
2023/10/03 12:15:42;;;;;;;;;;;;;;;;;;5072611;28;19974;-72
2023/10/03 12:18:08;;;;;;;;;;;;;;;;;;5072946;28;19918;-73
2023/10/03 12:20:36;;;;;;;;;;;;;;;;;;5072858;28;20435;-73
2023/10/03 12:23:04;;;;;;;;;;;;;;;;;;5072138;28;19962;-73
2023/10/03 12:25:30;;;;;;;;;;;;;;;;;;5072281;28;19915;-73
2023/10/03 12:27:55;;;;;;;;;;;;;;;;;;5071777;28;19908;-72
2023/10/03 12:30:22;;;;;;;;;;;;;;;;;;5072758;28;19912;-73
2023/10/03 12:32:48;;;;;;;;;;;;;;;;;;5072801;28;20003;-73
2023/10/03 12:35:14;;;;;;;;;;;;;;;;;;5071905;28;20368;-73
2023/10/03 12:37:41;;;;;;;;;;;;;;;;;;5072570;28;19912;-73
2023/10/03 12:40:13;;;;;;;;;;;;;;;;;;5072460;28;19997;-71
2023/10/03 12:42:40;;;;;;;;;;;;;;;;;;5072580;28;19908;-74
2023/10/03 12:45:07;;;;;;;;;;;;;;;;;;5071973;28;20375;-75
2023/10/03 12:47:35;;;;;;;;;;;;;;;;;;5072613;28;19915;-72
2023/10/03 12:50:01;;;;;;;;;;;;;;;;;;5094716;22;19935;-73
2023/10/03 12:52:30;;;;;;;;;;;;;;;;;;5070123;28;19913;-72
2023/10/03 12:54:56;;;;;;;;;;;;;;;;;;5071479;28;20443;-73
2023/10/03 12:57:22;;;;;;;;;;;;;;;;;;5087767;28;19926;-73
2023/10/03 12:59:49;;;;;;;;;;;;;;;;;;5072254;28;19943;-74
2023/10/03 13:02:17;;;;;;;;;;;;;;;;;;5072338;28;20368;-73
2023/10/03 13:04:43;;;;;;;;;;;;;;;;;;5069919;28;19943;-74
2023/10/03 13:07:09;;;;;;;;;;;;;;;;;;5070771;28;20276;-73
2023/10/03 13:09:35;;;;;;;;;;;;;;;;;;5071866;28;19909;-73
2023/10/03 13:12:01;;;;;;;;;;;;;;;;;;5072278;28;20341;-74
2023/10/03 13:14:27;;;;;;;;;;;;;;;;;;5071440;28;19909;-73
2023/10/03 13:16:58;;;;;;;;;;;;;;;;;;5071028;28;19989;-73
2023/10/03 13:19:24;;;;;;;;;;;;;;;;;;5071116;28;19933;-72
2023/10/03 13:21:50;;;;;;;;;;;;;;;;;;5072541;28;20387;-73
2023/10/03 13:24:20;;;;;;;;;;;;;;;;;;5071571;28;19938;-73
2023/10/03 13:26:46;;;;;;;;;;;;;;;;;;5073757;28;19916;-74
2023/10/03 13:29:12;;;;;;;;;;;;;;;;;;5072296;28;19905;-74
2023/10/03 13:31:37;;;;;;;;;;;;;;;;;;5072996;28;20165;-73
2023/10/03 13:34:03;;;;;;;;;;;;;;;;;;5071016;28;19935;-73
2023/10/03 13:36:30;;;;;;;;;;;;;;;;;;5071644;28;20354;-72
2023/10/03 13:38:56;;;;;;;;;;;;;;;;;;5068935;28;20380;-73
2023/10/03 13:41:21;;;;;;;;;;;;;;;;;;5071554;28;19909;-72
2023/10/03 13:43:47;;;;;;;;;;;;;;;;;;5070932;28;19909;-72
2023/10/03 13:46:14;;;;;;;;;;;;;;;;;;5071732;28;19916;-73
2023/10/03 13:48:39;;;;;;;;;;;;;;;;;;5071579;28;19908;-73
2023/10/03 13:51:05;;;;;;;;;;;;;;;;;;5071293;28;20252;-73
2023/10/03 13:53:31;;;;;;;;;;;;;;;;;;5068313;28;19913;-73
2023/10/03 13:55:59;;;;;;;;;;;;;;;;;;5071034;28;19913;-73
2023/10/03 13:58:29;;;;;;;;;;;;;;;;;;5068400;28;19917;-73
2023/10/03 14:00:55;;;;;;;;;;;;;;;;;;5070018;28;19912;-72
2023/10/03 14:03:22;;;;;;;;;;;;;;;;;;5069738;28;19920;-73
2023/10/03 14:05:48;;;;;;;;;;;;;;;;;;5052915;28;19959;-73
2023/10/03 14:08:14;;;;;;;;;;;;;;;;;;5053116;28;19909;-72
2023/10/03 14:10:40;;;;;;;;;;;;;;;;;;5053729;28;19908;-73
2023/10/03 14:13:06;;;;;;;;;;;;;;;;;;5051428;28;19944;-73
2023/10/03 14:15:33;;;;;;;;;;;;;;;;;;5051199;28;20269;-73
2023/10/03 14:17:59;;;;;;;;;;;;;;;;;;5052700;28;19920;-73
2023/10/03 14:20:26;;;;;;;;;;;;;;;;;;5051228;28;19909;-73
2023/10/03 14:22:53;;;;;;;;;;;;;;;;;;5051152;28;20399;-73
2023/10/03 14:25:20;;;;;;;;;;;;;;;;;;5050451;28;19909;-73
2023/10/03 14:27:46;;;;;;;;;;;;;;;;;;5050900;28;19909;-73
2023/10/03 14:30:12;;;;;;;;;;;;;;;;;;5050874;28;20343;-73
2023/10/03 14:32:37;;;;;;;;;;;;;;;;;;5050898;28;19913;-73
2023/10/03 14:35:03;;;;;;;;;;;;;;;;;;5048061;28;19943;-73
2023/10/03 14:37:29;;;;;;;;;;;;;;;;;;5050705;28;20007;-73
2023/10/03 14:39:55;;;;;;;;;;;;;;;;;;5050881;28;19915;-73
2023/10/03 14:42:21;;;;;;;;;;;;;;;;;;5050998;28;19913;-73
2023/10/03 14:44:47;;;;;;;;;;;;;;;;;;5050180;28;20385;-74
2023/10/03 14:47:13;;;;;;;;;;;;;;;;;;5053844;28;19971;-75
2023/10/03 14:49:40;;;;;;;;;;;;;;;;;;5054758;28;19944;-74
2023/10/03 14:52:06;;;;;;;;;;;;;;;;;;5054432;28;19917;-73
2023/10/03 14:54:33;;;;;;;;;;;;;;;;;;5053915;28;19913;-72
2023/10/03 14:56:59;;;;;;;;;;;;;;;;;;5054429;28;20344;-72
2023/10/03 14:59:25;;;;;;;;;;;;;;;;;;5054360;28;19959;-72
2023/10/03 15:01:53;;;;;;;;;;;;;;;;;;5054383;28;19909;-74
2023/10/03 15:04:19;;;;;;;;;;;;;;;;;;5052308;28;19917;-73
2023/10/03 15:06:45;;;;;;;;;;;;;;;;;;5062032;28;19962;-73
2023/10/03 15:09:11;;;;;;;;;;;;;;;;;;5072674;28;19916;-73
2023/10/03 15:11:37;;;;;;;;;;;;;;;;;;5073264;28;19909;-74
2023/10/03 15:14:03;;;;;;;;;;;;;;;;;;5067418;28;20399;-73
2023/10/03 15:16:32;;;;;;;;;;;;;;;;;;5073877;28;20379;-73
2023/10/03 15:18:58;;;;;;;;;;;;;;;;;;5073902;28;19909;-73
2023/10/03 15:21:24;;;;;;;;;;;;;;;;;;5073801;28;19908;-73
2023/10/03 15:23:51;;;;;;;;;;;;;;;;;;5072958;28;20384;-73
2023/10/03 15:26:17;;;;;;;;;;;;;;;;;;5074054;28;19909;-73
2023/10/03 15:28:44;;;;;;;;;;;;;;;;;;5073818;28;20030;-73
2023/10/03 15:31:10;;;;;;;;;;;;;;;;;;5073780;28;19959;-73
2023/10/03 15:33:36;;;;;;;;;;;;;;;;;;5072960;28;20232;-74
2023/10/03 15:36:02;;;;;;;;;;;;;;;;;;5069536;28;19909;-73
2023/10/03 15:38:28;;;;;;;;;;;;;;;;;;5073326;28;19955;-73
2023/10/03 15:40:54;;;;;;;;;;;;;;;;;;5073365;28;19909;-73
2023/10/03 15:43:20;;;;;;;;;;;;;;;;;;5073245;28;19909;-72
2023/10/03 15:45:47;;;;;;;;;;;;;;;;;;5073050;28;19978;-73
2023/10/03 15:48:13;;;;;;;;;;;;;;;;;;5073475;28;20777;-73
2023/10/03 15:50:40;;;;;;;;;;;;;;;;;;5073243;28;19916;-73
2023/10/03 15:53:07;;;;;;;;;;;;;;;;;;5071472;28;19920;-73
2023/10/03 15:55:33;;;;;;;;;;;;;;;;;;5072905;28;19909;-74
2023/10/03 15:57:59;;;;;;;;;;;;;;;;;;5059266;28;19919;-74
2023/10/03 16:00:25;;;;;;;;;;;;;;;;;;5072413;28;20384;-73
2023/10/03 16:02:52;;;;;;;;;;;;;;;;;;5073740;28;19920;-73
2023/10/03 16:05:18;;;;;;;;;;;;;;;;;;5073966;28;19909;-74
2023/10/03 16:07:46;;;;;;;;;;;;;;;;;;5073515;28;20334;-75
2023/10/03 16:10:12;;;;;;;;;;;;;;;;;;5073111;28;19909;-73
2023/10/03 16:12:39;;;;;;;;;;;;;;;;;;5073178;28;19919;-74
2023/10/03 16:15:05;;;;;;;;;;;;;;;;;;5072499;28;19908;-72
2023/10/03 16:17:31;;;;;;;;;;;;;;;;;;5072973;28;20303;-71
2023/10/03 16:19:57;;;;;;;;;;;;;;;;;;5073068;28;19909;-72
2023/10/03 16:22:23;;;;;;;;;;;;;;;;;;5072752;28;20022;-69
2023/10/03 16:24:49;;;;;;;;;;;;;;;;;;5072132;28;20407;-72
2023/10/03 16:27:15;;;;;;;;;;;;;;;;;;5073014;28;19962;-72
2023/10/03 16:29:41;;;;;;;;;;;;;;;;;;5071987;28;19912;-71
2023/10/03 16:32:11;;;;;;;;;;;;;;;;;;5072836;28;19948;-71
2023/10/03 16:34:38;;;;;;;;;;;;;;;;;;5072284;28;19987;-72
2023/10/03 16:37:04;;;;;;;;;;;;;;;;;;5072810;28;19913;-73
2023/10/03 16:39:32;;;;;;;;;;;;;;;;;;5072955;28;19908;-72
2023/10/03 16:41:59;;;;;;;;;;;;;;;;;;5075105;28;19909;-72
2023/10/03 16:44:25;;;;;;;;;;;;;;;;;;5073319;28;19905;-71
2023/10/03 16:46:52;;;;;;;;;;;;;;;;;;5074886;28;19919;-71
2023/10/03 16:49:18;;;;;;;;;;;;;;;;;;5073327;28;19920;-71
2023/10/03 16:51:44;;;;;;;;;;;;;;;;;;5070107;28;19917;-71